createdAt,value
2019-02-17T00:00:04.812Z,10.81
2019-02-17T00:01:04.741Z,10.76
2019-02-17T00:02:04.746Z,10.59
2019-02-17T00:03:04.754Z,10.78
2019-02-17T00:04:04.772Z,10.66
2019-02-17T00:05:04.791Z,10.66
2019-02-17T00:06:04.819Z,10.56
2019-02-17T00:07:04.826Z,10.60
2019-02-17T00:08:04.834Z,10.66
2019-02-17T00:09:04.849Z,10.63
2019-02-17T00:11:04.891Z,10.43
2019-02-17T00:12:25.909Z,10.44
2019-02-17T00:13:04.922Z,10.59
2019-02-17T00:14:04.930Z,10.76
2019-02-17T00:15:04.942Z,10.71
2019-02-17T00:16:04.957Z,10.76
2019-02-17T00:17:04.975Z,10.68
2019-02-17T00:18:05.002Z,10.84
2019-02-17T00:19:05.022Z,10.86
2019-02-17T00:20:05.064Z,10.47
2019-02-17T00:21:05.048Z,10.51
2019-02-17T00:22:05.055Z,10.30
2019-02-17T00:23:05.083Z,10.09
2019-02-17T00:24:05.089Z,10.30
2019-02-17T00:25:05.120Z,10.58
2019-02-17T00:26:05.125Z,10.53
2019-02-17T00:27:05.138Z,10.12
2019-02-17T00:28:05.150Z,10.19
2019-02-17T00:29:05.168Z,10.00
2019-02-17T00:30:05.263Z,10.06
2019-02-17T00:31:05.195Z,10.14
2019-02-17T00:32:05.209Z,10.15
2019-02-17T00:33:05.228Z,10.40
2019-02-17T00:34:05.241Z,10.33
2019-02-17T00:35:05.278Z,10.36
2019-02-17T00:36:05.280Z,10.55
2019-02-17T00:37:05.289Z,10.51
2019-02-17T00:38:05.302Z,10.39
2019-02-17T00:39:05.327Z,10.26
2019-02-17T00:40:05.342Z,10.32
2019-02-17T00:41:05.360Z,10.33
2019-02-17T00:42:05.371Z,10.21
2019-02-17T00:43:05.412Z,10.33
2019-02-17T00:44:05.393Z,10.32
2019-02-17T00:45:05.463Z,10.30
2019-02-17T00:46:05.432Z,10.33
2019-02-17T00:47:05.444Z,10.34
2019-02-17T00:48:05.460Z,10.28
2019-02-17T00:49:05.473Z,10.21
2019-02-17T00:50:05.504Z,10.34
2019-02-17T00:51:05.504Z,10.15
2019-02-17T00:52:05.524Z,9.97
2019-02-17T00:53:05.547Z,9.93
2019-02-17T00:54:05.558Z,10.12
2019-02-17T00:55:05.601Z,10.33
2019-02-17T00:56:05.589Z,10.30
2019-02-17T00:57:05.606Z,10.15
2019-02-17T00:58:05.621Z,10.26
2019-02-17T00:59:10.034Z,10.01
2019-02-17T01:00:05.657Z,10.15
2019-02-17T01:01:05.677Z,10.30
2019-02-17T01:02:05.679Z,10.15
2019-02-17T01:03:05.691Z,10.22
2019-02-17T01:04:05.715Z,10.14
2019-02-17T01:05:05.734Z,10.30
2019-02-17T01:06:05.752Z,9.94
2019-02-17T01:07:05.754Z,9.76
2019-02-17T01:08:05.778Z,9.83
2019-02-17T01:09:05.791Z,10.00
2019-02-17T01:10:05.799Z,9.89
2019-02-17T01:11:05.818Z,10.07
2019-02-17T01:12:05.831Z,9.79
2019-02-17T01:13:05.848Z,10.00
2019-02-17T01:14:05.874Z,10.17
2019-02-17T01:15:05.914Z,10.06
2019-02-17T01:16:05.898Z,10.03
2019-02-17T01:17:05.924Z,10.10
2019-02-17T01:18:05.929Z,10.15
2019-02-17T01:19:05.939Z,10.04
2019-02-17T01:20:05.957Z,9.96
2019-02-17T01:21:05.967Z,10.03
2019-02-17T01:22:05.984Z,10.17
2019-02-17T01:23:05.996Z,9.75
2019-02-17T01:24:06.020Z,10.07
2019-02-17T01:25:06.033Z,10.12
2019-02-17T01:26:06.050Z,9.94
2019-02-17T01:27:06.077Z,9.66
2019-02-17T01:28:06.079Z,9.53
2019-02-17T01:29:06.096Z,9.32
2019-02-17T01:30:06.106Z,9.66
2019-02-17T01:31:08.394Z,9.60
2019-02-17T01:32:06.151Z,9.68
2019-02-17T01:33:06.156Z,9.52
2019-02-17T01:34:06.163Z,9.73
2019-02-17T01:35:06.184Z,9.56
2019-02-17T01:36:06.197Z,9.75
2019-02-17T01:37:06.239Z,9.85
2019-02-17T01:38:06.246Z,9.82
2019-02-17T01:40:06.267Z,9.78
2019-02-17T01:41:06.273Z,9.73
2019-02-17T01:42:06.295Z,9.75
2019-02-17T01:43:06.298Z,9.66
2019-02-17T01:44:06.333Z,9.67
2019-02-17T01:45:06.330Z,9.66
2019-02-17T01:46:06.352Z,9.23
2019-02-17T01:47:06.378Z,9.52
2019-02-17T01:48:06.390Z,9.78
2019-02-17T01:49:06.397Z,9.64
2019-02-17T01:50:06.412Z,9.46
2019-02-17T01:51:06.431Z,9.57
2019-02-17T01:52:06.444Z,9.43
2019-02-17T01:53:06.484Z,9.56
2019-02-17T01:54:06.470Z,9.63
2019-02-17T01:55:06.487Z,9.63
2019-02-17T01:56:06.504Z,9.53
2019-02-17T01:57:06.523Z,9.52
2019-02-17T01:58:06.540Z,9.58
2019-02-17T01:59:06.543Z,9.64
2019-02-17T02:00:06.558Z,9.64
2019-02-17T02:01:06.580Z,9.30
2019-02-17T02:02:06.585Z,9.48
2019-02-17T02:04:06.634Z,9.49
2019-02-17T02:05:06.644Z,9.60
2019-02-17T02:06:06.649Z,9.70
2019-02-17T02:07:06.736Z,9.71
2019-02-17T02:08:06.680Z,9.73
2019-02-17T02:10:06.709Z,9.64
2019-02-17T02:11:06.742Z,9.67
2019-02-17T02:12:06.744Z,9.79
2019-02-17T02:13:06.758Z,9.78
2019-02-17T02:14:06.786Z,9.61
2019-02-17T02:15:06.793Z,9.58
2019-02-17T02:16:06.796Z,9.70
2019-02-17T02:17:06.864Z,9.68
2019-02-17T02:18:06.829Z,9.53
2019-02-17T02:19:06.860Z,9.64
2019-02-17T02:20:06.860Z,9.60
2019-02-17T02:21:06.870Z,9.64
2019-02-17T02:22:06.901Z,9.70
2019-02-17T02:23:06.905Z,9.57
2019-02-17T02:24:06.914Z,9.49
2019-02-17T02:25:06.934Z,9.67
2019-02-17T02:26:06.960Z,9.64
2019-02-17T02:27:06.968Z,9.75
2019-02-17T02:28:06.976Z,9.56
2019-02-17T02:29:06.997Z,9.45
2019-02-17T02:30:07.005Z,9.30
2019-02-17T02:31:07.023Z,9.42
2019-02-17T02:32:07.033Z,9.40
2019-02-17T02:33:07.054Z,9.60
2019-02-17T02:34:07.063Z,9.53
2019-02-17T02:35:07.090Z,9.60
2019-02-17T02:36:07.110Z,9.66
2019-02-17T02:37:07.108Z,9.45
2019-02-17T02:38:07.125Z,9.52
2019-02-17T02:39:07.148Z,9.28
2019-02-17T02:40:07.157Z,9.06
2019-02-17T02:41:07.171Z,9.35
2019-02-17T02:42:07.240Z,9.21
2019-02-17T02:43:07.201Z,9.35
2019-02-17T02:44:07.222Z,9.46
2019-02-17T02:45:07.238Z,9.25
2019-02-17T02:46:07.241Z,9.31
2019-02-17T02:47:07.255Z,9.13
2019-02-17T02:48:07.278Z,9.38
2019-02-17T02:49:07.288Z,9.27
2019-02-17T02:50:07.300Z,9.43
2019-02-17T02:51:07.311Z,9.10
2019-02-17T02:52:07.380Z,9.12
2019-02-17T02:53:07.349Z,9.12
2019-02-17T02:54:07.358Z,9.28
2019-02-17T02:55:07.376Z,9.32
2019-02-17T02:56:07.387Z,9.35
2019-02-17T02:57:07.406Z,9.31
2019-02-17T02:58:07.420Z,9.15
2019-02-17T02:59:07.431Z,9.32
2019-02-17T03:00:07.447Z,9.24
2019-02-17T03:01:07.461Z,9.10
2019-02-17T03:02:07.570Z,9.02
2019-02-17T03:03:07.495Z,9.24
2019-02-17T03:04:07.520Z,9.31
2019-02-17T03:05:07.520Z,9.25
2019-02-17T03:06:07.534Z,9.05
2019-02-17T03:07:07.547Z,9.02
2019-02-17T03:08:07.573Z,9.06
2019-02-17T03:09:07.581Z,9.16
2019-02-17T03:10:07.596Z,8.99
2019-02-17T03:11:07.621Z,8.88
2019-02-17T03:12:07.618Z,9.21
2019-02-17T03:13:07.641Z,9.21
2019-02-17T03:14:07.653Z,9.21
2019-02-17T03:15:07.680Z,9.15
2019-02-17T03:16:07.686Z,9.21
2019-02-17T03:17:07.704Z,8.97
2019-02-17T03:18:07.713Z,8.86
2019-02-17T03:19:07.720Z,8.53
2019-02-17T03:20:07.744Z,8.97
2019-02-17T03:21:07.759Z,8.97
2019-02-17T03:22:07.770Z,9.04
2019-02-17T03:23:07.787Z,9.10
2019-02-17T03:24:07.923Z,9.05
2019-02-17T03:25:07.808Z,9.13
2019-02-17T03:26:07.840Z,8.94
2019-02-17T03:27:07.908Z,8.78
2019-02-17T03:28:07.874Z,8.69
2019-02-17T03:29:07.867Z,8.93
2019-02-17T03:30:07.885Z,9.06
2019-02-17T03:31:07.909Z,9.05
2019-02-17T03:32:07.960Z,8.94
2019-02-17T03:33:07.932Z,8.93
2019-02-17T03:34:07.942Z,8.91
2019-02-17T03:35:07.959Z,9.01
2019-02-17T03:36:07.973Z,8.97
2019-02-17T03:37:08.018Z,9.02
2019-02-17T03:38:07.999Z,9.02
2019-02-17T03:39:08.015Z,9.05
2019-02-17T03:40:08.048Z,9.01
2019-02-17T03:41:08.046Z,8.91
2019-02-17T03:42:08.066Z,8.65
2019-02-17T03:43:08.083Z,8.94
2019-02-17T03:44:08.094Z,8.94
2019-02-17T03:45:08.110Z,9.02
2019-02-17T03:46:08.116Z,8.96
2019-02-17T03:47:08.142Z,8.86
2019-02-17T03:48:08.156Z,8.88
2019-02-17T03:49:08.159Z,8.81
2019-02-17T03:50:08.178Z,9.01
2019-02-17T03:51:08.186Z,8.90
2019-02-17T03:52:08.203Z,8.72
2019-02-17T03:53:08.215Z,8.76
2019-02-17T03:54:08.232Z,8.96
2019-02-17T03:55:08.257Z,8.96
2019-02-17T03:56:08.266Z,8.93
2019-02-17T03:57:08.302Z,8.93
2019-02-17T03:58:08.294Z,8.69
2019-02-17T03:59:08.305Z,8.48
2019-02-17T04:00:16.539Z,8.62
2019-02-17T04:01:08.332Z,8.69
2019-02-17T04:02:08.348Z,8.78
2019-02-17T04:03:08.357Z,8.84
2019-02-17T04:04:08.373Z,8.86
2019-02-17T04:05:08.421Z,8.55
2019-02-17T04:06:08.403Z,8.69
2019-02-17T04:07:08.432Z,8.79
2019-02-17T04:08:08.456Z,8.87
2019-02-17T04:10:08.474Z,8.65
2019-02-17T04:11:08.475Z,8.62
2019-02-17T04:12:08.491Z,8.72
2019-02-17T04:13:08.502Z,8.65
2019-02-17T04:14:08.529Z,8.65
2019-02-17T04:15:08.526Z,8.62
2019-02-17T04:16:08.545Z,8.71
2019-02-17T04:17:08.565Z,8.57
2019-02-17T04:18:08.575Z,8.54
2019-02-17T04:19:08.593Z,8.51
2019-02-17T04:20:08.605Z,8.63
2019-02-17T04:21:08.616Z,8.36
2019-02-17T04:22:08.631Z,8.53
2019-02-17T04:23:08.638Z,8.54
2019-02-17T04:24:08.661Z,8.53
2019-02-17T04:25:08.675Z,8.29
2019-02-17T04:26:08.683Z,8.47
2019-02-17T04:27:08.699Z,8.29
2019-02-17T04:28:08.720Z,8.35
2019-02-17T04:29:10.315Z,8.58
2019-02-17T04:30:08.747Z,8.11
2019-02-17T04:31:08.761Z,8.30
2019-02-17T04:32:08.793Z,8.53
2019-02-17T04:33:08.783Z,8.62
2019-02-17T04:35:08.814Z,8.33
2019-02-17T04:36:08.836Z,8.40
2019-02-17T04:37:08.851Z,8.30
2019-02-17T04:38:08.853Z,8.32
2019-02-17T04:39:08.870Z,8.17
2019-02-17T04:40:08.889Z,8.47
2019-02-17T04:41:08.913Z,8.63
2019-02-17T04:42:09.074Z,8.60
2019-02-17T04:43:08.930Z,8.29
2019-02-17T04:44:08.943Z,8.22
2019-02-17T04:45:08.959Z,8.29
2019-02-17T04:46:08.975Z,8.32
2019-02-17T04:47:08.990Z,8.42
2019-02-17T04:48:08.994Z,8.54
2019-02-17T04:49:09.015Z,8.42
2019-02-17T04:50:09.023Z,8.60
2019-02-17T04:51:09.037Z,8.29
2019-02-17T04:52:09.068Z,8.39
2019-02-17T04:53:09.069Z,8.39
2019-02-17T04:54:09.080Z,8.39
2019-02-17T04:55:09.093Z,8.22
2019-02-17T04:56:09.109Z,8.26
2019-02-17T04:57:09.238Z,8.32
2019-02-17T04:58:09.137Z,8.33
2019-02-17T04:59:09.147Z,8.44
2019-02-17T05:00:09.159Z,8.07
2019-02-17T05:01:09.193Z,8.03
2019-02-17T05:02:09.200Z,8.28
2019-02-17T05:03:09.203Z,8.14
2019-02-17T05:04:09.230Z,8.42
2019-02-17T05:05:09.243Z,8.50
2019-02-17T05:06:09.257Z,8.21
2019-02-17T05:07:09.303Z,8.36
2019-02-17T05:08:09.274Z,8.20
2019-02-17T05:09:09.287Z,8.21
2019-02-17T05:10:09.311Z,7.99
2019-02-17T05:11:09.326Z,7.94
2019-02-17T05:12:09.329Z,8.12
2019-02-17T05:14:09.364Z,8.04
2019-02-17T05:15:09.374Z,8.29
2019-02-17T05:16:09.387Z,8.36
2019-02-17T05:17:09.532Z,8.33
2019-02-17T05:18:09.450Z,8.39
2019-02-17T05:19:09.434Z,8.29
2019-02-17T05:20:09.449Z,8.12
2019-02-17T05:21:09.498Z,8.00
2019-02-17T05:22:09.476Z,8.14
2019-02-17T05:23:09.495Z,8.00
2019-02-17T05:24:09.507Z,8.18
2019-02-17T05:25:09.530Z,8.21
2019-02-17T05:26:09.530Z,8.07
2019-02-17T05:27:09.602Z,7.78
2019-02-17T05:28:09.559Z,7.58
2019-02-17T05:29:09.568Z,7.90
2019-02-17T05:30:09.587Z,7.82
2019-02-17T05:31:09.605Z,7.92
2019-02-17T05:32:09.622Z,8.25
2019-02-17T05:33:09.624Z,7.93
2019-02-17T05:34:09.645Z,8.03
2019-02-17T05:35:09.669Z,8.08
2019-02-17T05:36:09.663Z,8.10
2019-02-17T05:37:09.757Z,7.99
2019-02-17T05:38:09.692Z,7.99
2019-02-17T05:39:09.719Z,8.07
2019-02-17T05:40:09.726Z,8.10
2019-02-17T05:41:09.742Z,8.03
2019-02-17T05:42:09.762Z,7.90
2019-02-17T05:43:09.787Z,7.85
2019-02-17T05:44:09.796Z,7.81
2019-02-17T05:45:09.796Z,8.00
2019-02-17T05:46:09.807Z,7.92
2019-02-17T05:47:09.826Z,7.85
2019-02-17T05:48:09.833Z,7.90
2019-02-17T05:49:09.871Z,7.75
2019-02-17T05:50:09.862Z,8.07
2019-02-17T05:51:09.881Z,7.93
2019-02-17T05:52:09.898Z,7.99
2019-02-17T05:53:09.917Z,7.99
2019-02-17T05:54:09.924Z,7.96
2019-02-17T05:55:09.953Z,7.89
2019-02-17T05:56:09.943Z,7.79
2019-02-17T05:57:09.961Z,7.92
2019-02-17T05:58:09.988Z,8.03
2019-02-17T05:59:10.070Z,7.67
2019-02-17T06:00:09.997Z,7.89
2019-02-17T06:01:10.015Z,7.93
2019-02-17T06:02:10.041Z,8.04
2019-02-17T06:03:10.046Z,8.10
2019-02-17T06:04:10.055Z,7.94
2019-02-17T06:05:10.074Z,8.02
2019-02-17T06:06:10.082Z,7.63
2019-02-17T06:07:10.098Z,7.85
2019-02-17T06:08:10.113Z,7.92
2019-02-17T06:09:10.199Z,8.10
2019-02-17T06:10:10.139Z,7.92
2019-02-17T06:11:10.152Z,7.75
2019-02-17T06:12:10.172Z,7.85
2019-02-17T06:13:10.182Z,7.94
2019-02-17T06:14:10.205Z,7.89
2019-02-17T06:15:10.210Z,7.90
2019-02-17T06:16:10.221Z,7.90
2019-02-17T06:17:10.237Z,7.75
2019-02-17T06:18:10.251Z,7.62
2019-02-17T06:19:10.285Z,7.82
2019-02-17T06:20:10.280Z,7.47
2019-02-17T06:21:10.297Z,7.72
2019-02-17T06:22:10.307Z,7.49
2019-02-17T06:23:10.318Z,7.71
2019-02-17T06:24:10.341Z,7.82
2019-02-17T06:25:10.353Z,7.67
2019-02-17T06:26:10.360Z,7.75
2019-02-17T06:27:10.384Z,7.71
2019-02-17T06:28:10.393Z,7.89
2019-02-17T06:29:10.551Z,7.92
2019-02-17T06:30:10.416Z,8.00
2019-02-17T06:31:14.523Z,8.08
2019-02-17T06:32:10.462Z,7.96
2019-02-17T06:33:10.470Z,7.84
2019-02-17T06:35:10.482Z,7.84
2019-02-17T06:36:10.492Z,7.74
2019-02-17T06:37:10.514Z,7.31
2019-02-17T06:38:10.522Z,7.23
2019-02-17T06:39:10.544Z,7.42
2019-02-17T06:40:10.548Z,7.56
2019-02-17T06:41:10.597Z,7.45
2019-02-17T06:42:10.595Z,7.79
2019-02-17T06:43:10.589Z,7.89
2019-02-17T06:44:10.653Z,7.74
2019-02-17T06:45:10.620Z,7.71
2019-02-17T06:47:10.691Z,7.67
2019-02-17T06:48:10.709Z,8.00
2019-02-17T06:49:10.718Z,7.81
2019-02-17T06:50:10.731Z,7.82
2019-02-17T06:51:10.752Z,7.82
2019-02-17T06:52:10.761Z,7.82
2019-02-17T06:53:31.796Z,7.84
2019-02-17T06:54:10.921Z,7.79
2019-02-17T06:55:10.810Z,7.63
2019-02-17T06:56:10.821Z,7.09
2019-02-17T06:57:10.866Z,7.24
2019-02-17T06:58:10.836Z,7.40
2019-02-17T06:59:31.884Z,7.35
2019-02-17T07:00:10.872Z,7.49
2019-02-17T07:01:10.882Z,7.47
2019-02-17T07:02:10.913Z,7.47
2019-02-17T07:03:10.904Z,7.60
2019-02-17T07:04:10.973Z,7.47
2019-02-17T07:05:10.921Z,7.78
2019-02-17T07:06:10.925Z,7.47
2019-02-17T07:07:10.935Z,7.23
2019-02-17T07:08:10.936Z,7.27
2019-02-17T07:09:10.947Z,7.26
2019-02-17T07:10:10.969Z,7.49
2019-02-17T07:11:11.006Z,7.72
2019-02-17T07:12:11.002Z,7.63
2019-02-17T07:13:11.002Z,7.67
2019-02-17T07:14:11.106Z,7.85
2019-02-17T07:15:11.031Z,7.97
2019-02-17T07:16:11.056Z,7.92
2019-02-17T07:17:11.064Z,7.81
2019-02-17T07:18:11.072Z,7.56
2019-02-17T07:19:11.167Z,7.66
2019-02-17T07:20:11.098Z,7.63
2019-02-17T07:21:11.139Z,7.44
2019-02-17T07:22:11.154Z,7.37
2019-02-17T07:23:11.138Z,7.78
2019-02-17T07:24:11.192Z,7.81
2019-02-17T07:25:11.167Z,7.81
2019-02-17T07:26:11.221Z,7.63
2019-02-17T07:27:11.207Z,7.56
2019-02-17T07:28:11.208Z,7.62
2019-02-17T07:29:11.226Z,7.66
2019-02-17T07:30:11.245Z,7.47
2019-02-17T07:31:11.247Z,7.50
2019-02-17T07:32:11.266Z,7.59
2019-02-17T07:33:11.282Z,7.71
2019-02-17T07:34:11.291Z,7.71
2019-02-17T07:35:11.306Z,7.35
2019-02-17T07:36:11.334Z,7.49
2019-02-17T07:37:11.342Z,7.84
2019-02-17T07:38:11.344Z,7.37
2019-02-17T07:39:11.358Z,7.31
2019-02-17T07:40:11.381Z,7.40
2019-02-17T07:41:11.389Z,7.60
2019-02-17T07:42:11.408Z,7.40
2019-02-17T07:43:11.420Z,7.66
2019-02-17T07:44:11.427Z,7.93
2019-02-17T07:45:11.444Z,7.84
2019-02-17T07:46:11.473Z,7.89
2019-02-17T07:47:11.471Z,7.84
2019-02-17T07:48:11.488Z,7.82
2019-02-17T07:49:11.551Z,7.82
2019-02-17T07:50:11.521Z,7.92
2019-02-17T07:51:11.530Z,7.94
2019-02-17T07:52:11.591Z,8.02
2019-02-17T07:53:11.559Z,7.96
2019-02-17T07:54:11.569Z,8.11
2019-02-17T07:55:11.588Z,8.07
2019-02-17T07:56:11.597Z,8.02
2019-02-17T07:57:11.620Z,7.96
2019-02-17T07:58:11.631Z,8.14
2019-02-17T07:59:11.639Z,8.12
2019-02-17T08:00:11.661Z,8.02
2019-02-17T08:01:11.698Z,8.11
2019-02-17T08:02:11.728Z,8.00
2019-02-17T08:03:11.695Z,8.00
2019-02-17T08:04:11.710Z,8.04
2019-02-17T08:05:11.726Z,8.17
2019-02-17T08:06:11.732Z,8.60
2019-02-17T08:07:11.753Z,8.79
2019-02-17T08:08:11.793Z,9.16
2019-02-17T08:09:11.779Z,9.12
2019-02-17T08:10:11.831Z,9.24
2019-02-17T08:11:11.822Z,8.90
2019-02-17T08:12:11.834Z,9.39
2019-02-17T08:13:11.857Z,9.58
2019-02-17T08:14:11.854Z,9.75
2019-02-17T08:15:11.914Z,9.70
2019-02-17T08:16:11.952Z,9.76
2019-02-17T08:17:11.957Z,9.91
2019-02-17T08:19:11.940Z,9.88
2019-02-17T08:20:11.954Z,9.89
2019-02-17T08:21:11.976Z,10.24
2019-02-17T08:22:11.986Z,10.46
2019-02-17T08:23:12.007Z,10.56
2019-02-17T08:24:12.030Z,10.73
2019-02-17T08:25:21.474Z,10.66
2019-02-17T08:26:12.053Z,10.70
2019-02-17T08:27:12.157Z,10.95
2019-02-17T08:28:12.085Z,10.74
2019-02-17T08:29:12.109Z,10.70
2019-02-17T08:30:12.129Z,10.65
2019-02-17T08:31:12.142Z,10.91
2019-02-17T08:32:12.165Z,11.10
2019-02-17T08:33:12.177Z,11.20
2019-02-17T08:34:12.202Z,11.34
2019-02-17T08:35:12.211Z,11.38
2019-02-17T08:36:12.245Z,11.44
2019-02-17T08:37:12.344Z,11.32
2019-02-17T08:38:12.264Z,11.20
2019-02-17T08:39:12.284Z,11.46
2019-02-17T08:40:12.304Z,11.29
2019-02-17T08:41:12.317Z,11.25
2019-02-17T08:42:12.349Z,11.20
2019-02-17T08:43:12.362Z,11.27
2019-02-17T08:44:12.378Z,11.38
2019-02-17T08:45:12.404Z,11.77
2019-02-17T08:46:12.416Z,11.64
2019-02-17T08:47:12.504Z,11.72
2019-02-17T08:48:12.449Z,11.77
2019-02-17T08:49:12.471Z,11.80
2019-02-17T08:50:12.489Z,11.72
2019-02-17T08:51:12.519Z,11.78
2019-02-17T08:52:12.539Z,12.13
2019-02-17T08:53:12.539Z,12.44
2019-02-17T08:54:12.555Z,12.67
2019-02-17T08:55:12.579Z,12.60
2019-02-17T08:56:12.608Z,12.51
2019-02-17T08:57:12.629Z,12.66
2019-02-17T08:58:12.641Z,12.97
2019-02-17T08:59:12.652Z,13.06
2019-02-17T09:00:12.685Z,13.41
2019-02-17T09:01:12.709Z,13.59
2019-02-17T09:03:12.752Z,14.19
2019-02-17T09:04:12.762Z,14.46
2019-02-17T09:05:12.785Z,14.60
2019-02-17T09:06:12.791Z,14.90
2019-02-17T09:07:12.815Z,14.69
2019-02-17T09:08:12.827Z,14.31
2019-02-17T09:09:12.974Z,13.91
2019-02-17T09:10:12.873Z,13.89
2019-02-17T09:11:12.885Z,14.06
2019-02-17T09:12:12.962Z,13.81
2019-02-17T09:13:12.921Z,14.35
2019-02-17T09:14:12.945Z,14.60
2019-02-17T09:15:12.977Z,15.38
2019-02-17T09:16:12.988Z,15.70
2019-02-17T09:17:13.028Z,16.50
2019-02-17T09:18:13.029Z,17.15
2019-02-17T09:19:13.094Z,17.11
2019-02-17T09:20:13.067Z,17.55
2019-02-17T09:21:13.091Z,18.33
2019-02-17T09:22:13.117Z,18.09
2019-02-17T09:23:13.127Z,19.20
2019-02-17T09:24:13.146Z,19.73
2019-02-17T09:25:13.168Z,19.21
2019-02-17T09:26:13.196Z,19.76
2019-02-17T09:27:13.225Z,19.60
2019-02-17T09:28:13.255Z,20.87
2019-02-17T09:29:13.338Z,20.58
2019-02-17T09:30:13.287Z,18.50
2019-02-17T09:31:13.298Z,17.03
2019-02-17T09:32:16.210Z,16.62
2019-02-17T09:33:13.348Z,16.88
2019-02-17T09:34:13.365Z,18.36
2019-02-17T09:35:13.390Z,19.65
2019-02-17T09:36:13.417Z,19.73
2019-02-17T09:37:13.437Z,18.99
2019-02-17T09:38:13.447Z,17.36
2019-02-17T09:39:13.579Z,16.27
2019-02-17T09:40:13.504Z,15.54
2019-02-17T09:41:13.527Z,14.87
2019-02-17T09:42:13.573Z,14.65
2019-02-17T09:43:13.612Z,14.75
2019-02-17T09:44:13.573Z,15.21
2019-02-17T09:45:13.595Z,15.49
2019-02-17T09:46:13.611Z,15.67
2019-02-17T09:47:13.645Z,15.51
2019-02-17T09:48:13.687Z,15.92
2019-02-17T09:49:13.678Z,16.99
2019-02-17T09:50:13.699Z,17.44
2019-02-17T09:51:13.826Z,16.53
2019-02-17T09:52:13.741Z,15.66
2019-02-17T09:53:13.766Z,14.90
2019-02-17T09:54:13.784Z,14.74
2019-02-17T09:55:13.801Z,14.74
2019-02-17T09:56:13.821Z,14.60
2019-02-17T09:57:13.836Z,14.44
2019-02-17T09:58:13.866Z,14.25
2019-02-17T09:59:13.885Z,14.47
2019-02-17T10:00:13.901Z,14.75
2019-02-17T10:01:13.931Z,15.24
2019-02-17T10:02:13.941Z,15.86
2019-02-17T10:03:13.961Z,16.44
2019-02-17T10:04:13.984Z,16.88
2019-02-17T10:05:14.006Z,16.92
2019-02-17T10:06:14.015Z,17.48
2019-02-17T10:07:14.035Z,17.53
2019-02-17T10:08:14.062Z,17.73
2019-02-17T10:09:14.086Z,17.94
2019-02-17T10:10:14.121Z,18.58
2019-02-17T10:11:14.161Z,19.28
2019-02-17T10:12:14.159Z,19.48
2019-02-17T10:13:14.165Z,19.78
2019-02-17T10:14:14.185Z,20.47
2019-02-17T10:15:14.209Z,21.44
2019-02-17T10:16:14.242Z,21.56
2019-02-17T10:17:14.255Z,21.64
2019-02-17T10:18:14.277Z,21.91
2019-02-17T10:19:14.300Z,21.30
2019-02-17T10:20:14.330Z,20.16
2019-02-17T10:21:14.348Z,18.65
2019-02-17T10:22:14.382Z,17.59
2019-02-17T10:23:14.400Z,17.26
2019-02-17T10:24:14.406Z,17.50
2019-02-17T10:25:14.442Z,17.95
2019-02-17T10:26:14.463Z,17.97
2019-02-17T10:27:14.497Z,17.57
2019-02-17T10:28:14.499Z,17.15
2019-02-17T10:29:14.517Z,16.81
2019-02-17T10:30:14.539Z,16.41
2019-02-17T10:31:14.564Z,16.34
2019-02-17T10:32:14.580Z,16.30
2019-02-17T10:33:14.609Z,16.95
2019-02-17T10:34:14.620Z,17.70
2019-02-17T10:35:14.650Z,18.80
2019-02-17T10:36:14.674Z,19.58
2019-02-17T10:37:14.694Z,20.99
2019-02-17T10:38:14.726Z,21.53
2019-02-17T10:39:14.732Z,22.39
2019-02-17T10:40:14.756Z,23.52
2019-02-17T10:41:14.781Z,24.01
2019-02-17T10:42:14.790Z,24.16
2019-02-17T10:43:14.817Z,24.19
2019-02-17T10:44:14.844Z,23.61
2019-02-17T10:45:14.867Z,23.65
2019-02-17T10:46:14.879Z,23.64
2019-02-17T10:47:14.912Z,22.68
2019-02-17T10:48:14.940Z,21.29
2019-02-17T10:49:14.952Z,20.64
2019-02-17T10:50:15.085Z,20.83
2019-02-17T10:51:14.993Z,21.35
2019-02-17T10:52:15.015Z,21.06
2019-02-17T10:53:15.064Z,20.77
2019-02-17T10:54:15.068Z,20.69
2019-02-17T10:55:15.075Z,20.05
2019-02-17T10:56:15.105Z,20.35
2019-02-17T10:57:15.113Z,21.75
2019-02-17T10:58:15.146Z,23.55
2019-02-17T10:59:15.180Z,24.88
2019-02-17T11:00:15.173Z,25.69
2019-02-17T11:01:15.236Z,25.87
2019-02-17T11:02:15.217Z,25.24
2019-02-17T11:03:15.272Z,25.02
2019-02-17T11:04:15.261Z,24.69
2019-02-17T11:05:15.331Z,24.82
2019-02-17T11:06:15.320Z,25.24
2019-02-17T11:07:15.334Z,25.31
2019-02-17T11:08:15.371Z,26.08
2019-02-17T11:09:15.389Z,25.67
2019-02-17T11:10:15.430Z,24.53
2019-02-17T11:11:15.414Z,23.64
2019-02-17T11:12:15.437Z,22.44
2019-02-17T11:13:15.461Z,21.41
2019-02-17T11:14:15.493Z,20.89
2019-02-17T11:15:15.527Z,20.49
2019-02-17T11:16:15.525Z,19.76
2019-02-17T11:18:15.578Z,19.73
2019-02-17T11:19:15.601Z,19.36
2019-02-17T11:20:15.624Z,19.08
2019-02-17T11:21:15.638Z,19.24
2019-02-17T11:22:22.906Z,19.08
2019-02-17T11:23:15.701Z,19.06
2019-02-17T11:24:15.704Z,18.90
2019-02-17T11:25:15.783Z,18.74
2019-02-17T11:26:15.757Z,18.54
2019-02-17T11:27:15.783Z,18.70
2019-02-17T11:28:15.799Z,18.64
2019-02-17T11:29:15.822Z,18.64
2019-02-17T11:30:15.848Z,18.64
2019-02-17T11:31:15.869Z,18.55
2019-02-17T11:32:15.957Z,18.50
2019-02-17T11:33:15.919Z,18.52
2019-02-17T11:34:15.938Z,18.43
2019-02-17T11:35:15.981Z,18.43
2019-02-17T11:36:15.997Z,18.57
2019-02-17T11:37:16.011Z,18.67
2019-02-17T11:38:16.033Z,18.67
2019-02-17T11:39:16.078Z,18.55
2019-02-17T11:41:16.186Z,18.67
2019-02-17T11:42:16.226Z,18.84
2019-02-17T11:43:16.164Z,18.77
2019-02-17T11:44:16.182Z,18.74
2019-02-17T11:45:16.212Z,18.73
2019-02-17T11:46:16.241Z,18.82
2019-02-17T11:47:16.263Z,18.91
2019-02-17T11:48:16.288Z,18.98
2019-02-17T11:49:16.475Z,18.99
2019-02-17T11:50:16.364Z,19.08
2019-02-17T11:51:16.378Z,19.11
2019-02-17T11:52:16.417Z,18.97
2019-02-17T11:53:16.441Z,18.97
2019-02-17T11:54:16.459Z,18.94
2019-02-17T11:55:16.498Z,19.10
2019-02-17T11:56:16.512Z,19.21
2019-02-17T11:57:16.539Z,19.25
2019-02-17T11:58:16.567Z,19.28
2019-02-17T11:59:16.637Z,19.36
2019-02-17T12:00:16.630Z,19.42
2019-02-17T12:01:16.658Z,19.50
2019-02-17T12:02:24.697Z,19.47
2019-02-17T12:03:16.719Z,19.43
2019-02-17T12:04:16.760Z,19.48
2019-02-17T12:06:16.816Z,19.39
2019-02-17T12:07:16.829Z,19.48
2019-02-17T12:08:16.851Z,19.42
2019-02-17T12:09:16.884Z,19.90
2019-02-17T12:10:16.904Z,21.01
2019-02-17T12:11:16.940Z,23.70
2019-02-17T12:12:16.958Z,25.65
2019-02-17T12:13:16.993Z,26.64
2019-02-17T12:14:17.014Z,27.59
2019-02-17T12:15:17.042Z,27.96
2019-02-17T12:16:17.083Z,27.31
2019-02-17T12:17:17.104Z,25.22
2019-02-17T12:18:17.240Z,23.35
2019-02-17T12:19:17.152Z,22.23
2019-02-17T12:20:17.176Z,21.29
2019-02-17T12:21:17.195Z,20.90
2019-02-17T12:22:17.218Z,20.62
2019-02-17T12:23:17.256Z,20.39
2019-02-17T12:24:17.306Z,20.16
2019-02-17T12:25:17.309Z,19.98
2019-02-17T12:26:17.317Z,20.02
2019-02-17T12:27:17.360Z,19.91
2019-02-17T12:28:17.442Z,20.02
2019-02-17T12:29:17.393Z,19.90
2019-02-17T12:30:17.429Z,19.84
2019-02-17T12:31:17.457Z,19.90
2019-02-17T12:32:17.481Z,19.83
2019-02-17T12:33:19.402Z,19.69
2019-02-17T12:34:17.517Z,19.72
2019-02-17T12:35:17.677Z,19.51
2019-02-17T12:36:17.559Z,19.54
2019-02-17T12:37:17.663Z,19.40
2019-02-17T12:38:17.615Z,19.42
2019-02-17T12:39:17.636Z,19.42
2019-02-17T12:40:17.663Z,19.50
2019-02-17T12:41:17.678Z,19.48
2019-02-17T12:42:17.734Z,19.31
2019-02-17T12:43:17.743Z,19.42
2019-02-17T12:44:17.757Z,19.28
2019-02-17T12:45:18.475Z,19.38
2019-02-17T12:46:17.816Z,19.39
2019-02-17T12:47:17.827Z,19.35
2019-02-17T12:48:17.842Z,19.25
2019-02-17T12:49:17.868Z,19.21
2019-02-17T12:50:17.905Z,19.28
2019-02-17T12:51:17.926Z,19.15
2019-02-17T12:52:17.936Z,19.29
2019-02-17T12:53:17.970Z,19.23
2019-02-17T12:54:17.990Z,19.17
2019-02-17T12:55:18.033Z,19.13
2019-02-17T12:56:18.042Z,19.13
2019-02-17T12:57:18.058Z,19.28
2019-02-17T12:58:18.089Z,19.29
2019-02-17T12:59:18.105Z,19.31
2019-02-17T13:00:18.128Z,19.31
2019-02-17T13:01:18.144Z,19.35
2019-02-17T13:02:18.172Z,19.29
2019-02-17T13:03:28.065Z,19.28
2019-02-17T13:04:18.216Z,19.28
2019-02-17T13:05:18.232Z,19.31
2019-02-17T13:06:18.267Z,19.31
2019-02-17T13:07:18.440Z,19.36
2019-02-17T13:08:18.309Z,19.35
2019-02-17T13:09:18.354Z,19.33
2019-02-17T13:10:18.369Z,19.28
2019-02-17T13:11:18.401Z,19.24
2019-02-17T13:12:18.407Z,19.32
2019-02-17T13:13:18.436Z,19.28
2019-02-17T13:14:18.463Z,19.35
2019-02-17T13:15:18.479Z,19.43
2019-02-17T13:16:18.501Z,19.46
2019-02-17T13:17:18.513Z,19.42
2019-02-17T13:18:18.532Z,19.36
2019-02-17T13:19:18.555Z,19.40
2019-02-17T13:20:18.580Z,19.43